sensor_id;sensor_type;location;lat;lon;timestamp;P1;durP1;ratioP1;P2;durP2;ratioP2
67442;SDS011;54311;51.726;5.154;2022-08-14T00:00:22;9.32;;;8.25;;
67442;SDS011;54311;51.726;5.154;2022-08-14T00:02:48;9.07;;;8.17;;
67442;SDS011;54311;51.726;5.154;2022-08-14T00:05:14;11.70;;;8.50;;
67442;SDS011;54311;51.726;5.154;2022-08-14T00:07:40;15.50;;;8.50;;
67442;SDS011;54311;51.726;5.154;2022-08-14T00:10:06;8.93;;;7.90;;
67442;SDS011;54311;51.726;5.154;2022-08-14T00:12:33;10.50;;;9.70;;
67442;SDS011;54311;51.726;5.154;2022-08-14T00:14:59;9.77;;;8.90;;
67442;SDS011;54311;51.726;5.154;2022-08-14T00:17:24;9.85;;;9.15;;
67442;SDS011;54311;51.726;5.154;2022-08-14T00:19:50;10.43;;;9.45;;
67442;SDS011;54311;51.726;5.154;2022-08-14T00:22:15;10.47;;;9.60;;
67442;SDS011;54311;51.726;5.154;2022-08-14T00:24:43;10.65;;;9.52;;
67442;SDS011;54311;51.726;5.154;2022-08-14T00:27:08;11.00;;;9.85;;
67442;SDS011;54311;51.726;5.154;2022-08-14T00:29:33;12.63;;;8.87;;
67442;SDS011;54311;51.726;5.154;2022-08-14T00:31:58;11.03;;;10.13;;
67442;SDS011;54311;51.726;5.154;2022-08-14T00:34:24;10.77;;;9.67;;
67442;SDS011;54311;51.726;5.154;2022-08-14T00:36:49;10.87;;;9.90;;
67442;SDS011;54311;51.726;5.154;2022-08-14T00:39:14;11.07;;;10.07;;
67442;SDS011;54311;51.726;5.154;2022-08-14T00:41:39;15.93;;;10.80;;
67442;SDS011;54311;51.726;5.154;2022-08-14T00:44:05;10.68;;;9.73;;
67442;SDS011;54311;51.726;5.154;2022-08-14T00:46:31;11.05;;;10.10;;
67442;SDS011;54311;51.726;5.154;2022-08-14T00:48:56;19.10;;;10.87;;
67442;SDS011;54311;51.726;5.154;2022-08-14T00:51:21;11.77;;;10.80;;
67442;SDS011;54311;51.726;5.154;2022-08-14T00:53:47;11.98;;;10.88;;
67442;SDS011;54311;51.726;5.154;2022-08-14T00:56:14;14.15;;;11.07;;
67442;SDS011;54311;51.726;5.154;2022-08-14T00:58:39;11.60;;;10.55;;
67442;SDS011;54311;51.726;5.154;2022-08-14T01:01:08;11.10;;;10.20;;
67442;SDS011;54311;51.726;5.154;2022-08-14T01:03:35;11.35;;;10.45;;
67442;SDS011;54311;51.726;5.154;2022-08-14T01:06:02;11.77;;;10.70;;
67442;SDS011;54311;51.726;5.154;2022-08-14T01:08:28;11.30;;;10.40;;
67442;SDS011;54311;51.726;5.154;2022-08-14T01:10:54;11.65;;;10.57;;
67442;SDS011;54311;51.726;5.154;2022-08-14T01:13:24;12.88;;;11.25;;
67442;SDS011;54311;51.726;5.154;2022-08-14T01:15:52;13.25;;;11.95;;
67442;SDS011;54311;51.726;5.154;2022-08-14T01:18:17;12.43;;;11.23;;
67442;SDS011;54311;51.726;5.154;2022-08-14T01:21:01;12.32;;;11.18;;
67442;SDS011;54311;51.726;5.154;2022-08-14T01:23:38;13.75;;;11.25;;
67442;SDS011;54311;51.726;5.154;2022-08-14T01:26:03;13.73;;;12.50;;
67442;SDS011;54311;51.726;5.154;2022-08-14T01:28:29;11.88;;;10.82;;
67442;SDS011;54311;51.726;5.154;2022-08-14T01:30:55;13.32;;;12.15;;
67442;SDS011;54311;51.726;5.154;2022-08-14T01:33:24;12.18;;;11.05;;
67442;SDS011;54311;51.726;5.154;2022-08-14T01:35:54;12.75;;;11.13;;
67442;SDS011;54311;51.726;5.154;2022-08-14T01:38:23;21.83;;;11.90;;
67442;SDS011;54311;51.726;5.154;2022-08-14T01:40:48;12.00;;;10.95;;
67442;SDS011;54311;51.726;5.154;2022-08-14T01:43:14;15.38;;;11.43;;
67442;SDS011;54311;51.726;5.154;2022-08-14T01:45:42;12.82;;;11.75;;
67442;SDS011;54311;51.726;5.154;2022-08-14T01:48:07;16.58;;;12.02;;
67442;SDS011;54311;51.726;5.154;2022-08-14T01:50:33;12.45;;;11.55;;
67442;SDS011;54311;51.726;5.154;2022-08-14T01:52:58;13.77;;;11.98;;
67442;SDS011;54311;51.726;5.154;2022-08-14T01:55:26;12.40;;;11.43;;
67442;SDS011;54311;51.726;5.154;2022-08-14T01:57:56;13.20;;;11.75;;
67442;SDS011;54311;51.726;5.154;2022-08-14T02:00:21;12.00;;;10.90;;
67442;SDS011;54311;51.726;5.154;2022-08-14T02:02:46;15.30;;;11.77;;
67442;SDS011;54311;51.726;5.154;2022-08-14T02:05:12;14.07;;;12.50;;
67442;SDS011;54311;51.726;5.154;2022-08-14T02:07:37;12.85;;;11.63;;
67442;SDS011;54311;51.726;5.154;2022-08-14T02:10:03;13.27;;;12.15;;
67442;SDS011;54311;51.726;5.154;2022-08-14T02:12:29;13.27;;;12.15;;
67442;SDS011;54311;51.726;5.154;2022-08-14T02:14:54;14.00;;;11.95;;
67442;SDS011;54311;51.726;5.154;2022-08-14T02:17:20;13.27;;;12.25;;
67442;SDS011;54311;51.726;5.154;2022-08-14T02:19:47;12.77;;;11.43;;
67442;SDS011;54311;51.726;5.154;2022-08-14T02:22:13;13.77;;;12.38;;
67442;SDS011;54311;51.726;5.154;2022-08-14T02:24:38;13.63;;;11.80;;
67442;SDS011;54311;51.726;5.154;2022-08-14T02:27:03;12.63;;;11.25;;
67442;SDS011;54311;51.726;5.154;2022-08-14T02:29:29;13.73;;;11.35;;
67442;SDS011;54311;51.726;5.154;2022-08-14T02:31:56;14.88;;;11.93;;
67442;SDS011;54311;51.726;5.154;2022-08-14T02:34:23;12.77;;;11.65;;
67442;SDS011;54311;51.726;5.154;2022-08-14T02:36:51;15.98;;;11.40;;
67442;SDS011;54311;51.726;5.154;2022-08-14T02:39:17;12.73;;;11.77;;
67442;SDS011;54311;51.726;5.154;2022-08-14T02:41:42;12.20;;;11.20;;
67442;SDS011;54311;51.726;5.154;2022-08-14T02:44:08;12.93;;;11.73;;
67442;SDS011;54311;51.726;5.154;2022-08-14T02:46:34;13.57;;;12.27;;
67442;SDS011;54311;51.726;5.154;2022-08-14T02:49:00;12.88;;;11.68;;
67442;SDS011;54311;51.726;5.154;2022-08-14T02:51:25;13.48;;;12.23;;
67442;SDS011;54311;51.726;5.154;2022-08-14T02:53:51;13.07;;;12.00;;
67442;SDS011;54311;51.726;5.154;2022-08-14T02:56:18;13.77;;;12.57;;
67442;SDS011;54311;51.726;5.154;2022-08-14T02:58:45;14.05;;;12.80;;
67442;SDS011;54311;51.726;5.154;2022-08-14T03:01:13;14.20;;;13.00;;
67442;SDS011;54311;51.726;5.154;2022-08-14T03:03:39;13.18;;;11.80;;
67442;SDS011;54311;51.726;5.154;2022-08-14T03:06:05;15.98;;;12.65;;
67442;SDS011;54311;51.726;5.154;2022-08-14T03:08:31;14.05;;;12.73;;
67442;SDS011;54311;51.726;5.154;2022-08-14T03:10:57;13.77;;;12.48;;
67442;SDS011;54311;51.726;5.154;2022-08-14T03:13:23;14.30;;;13.07;;
67442;SDS011;54311;51.726;5.154;2022-08-14T03:15:49;17.65;;;13.20;;
67442;SDS011;54311;51.726;5.154;2022-08-14T03:18:17;14.52;;;13.35;;
67442;SDS011;54311;51.726;5.154;2022-08-14T03:20:43;13.80;;;12.80;;
67442;SDS011;54311;51.726;5.154;2022-08-14T03:23:08;14.27;;;12.87;;
67442;SDS011;54311;51.726;5.154;2022-08-14T03:25:33;14.38;;;13.23;;
67442;SDS011;54311;51.726;5.154;2022-08-14T03:28:03;14.73;;;13.32;;
67442;SDS011;54311;51.726;5.154;2022-08-14T03:30:30;14.02;;;12.85;;
67442;SDS011;54311;51.726;5.154;2022-08-14T03:32:55;15.43;;;14.02;;
67442;SDS011;54311;51.726;5.154;2022-08-14T03:35:21;14.82;;;13.40;;
67442;SDS011;54311;51.726;5.154;2022-08-14T03:37:47;14.00;;;12.87;;
67442;SDS011;54311;51.726;5.154;2022-08-14T03:40:12;18.40;;;15.75;;
67442;SDS011;54311;51.726;5.154;2022-08-14T03:42:37;15.45;;;14.10;;
67442;SDS011;54311;51.726;5.154;2022-08-14T03:45:03;15.20;;;13.77;;
67442;SDS011;54311;51.726;5.154;2022-08-14T03:47:30;17.38;;;13.82;;
67442;SDS011;54311;51.726;5.154;2022-08-14T03:49:56;14.63;;;13.43;;
67442;SDS011;54311;51.726;5.154;2022-08-14T03:52:22;15.20;;;13.90;;
67442;SDS011;54311;51.726;5.154;2022-08-14T03:54:48;15.23;;;13.93;;
67442;SDS011;54311;51.726;5.154;2022-08-14T03:57:13;15.82;;;14.15;;
67442;SDS011;54311;51.726;5.154;2022-08-14T03:59:38;16.57;;;15.07;;
67442;SDS011;54311;51.726;5.154;2022-08-14T04:02:04;16.13;;;14.80;;
67442;SDS011;54311;51.726;5.154;2022-08-14T04:04:29;15.43;;;14.13;;
67442;SDS011;54311;51.726;5.154;2022-08-14T04:06:55;15.23;;;13.93;;
67442;SDS011;54311;51.726;5.154;2022-08-14T04:09:20;15.38;;;13.95;;
67442;SDS011;54311;51.726;5.154;2022-08-14T04:11:45;15.77;;;14.30;;
67442;SDS011;54311;51.726;5.154;2022-08-14T04:14:11;14.95;;;13.65;;
67442;SDS011;54311;51.726;5.154;2022-08-14T04:16:37;16.05;;;14.68;;
67442;SDS011;54311;51.726;5.154;2022-08-14T04:19:05;17.02;;;14.43;;
67442;SDS011;54311;51.726;5.154;2022-08-14T04:21:32;16.92;;;15.43;;
67442;SDS011;54311;51.726;5.154;2022-08-14T04:23:58;16.42;;;14.90;;
67442;SDS011;54311;51.726;5.154;2022-08-14T04:26:24;16.92;;;15.30;;
67442;SDS011;54311;51.726;5.154;2022-08-14T04:28:51;16.27;;;14.68;;
67442;SDS011;54311;51.726;5.154;2022-08-14T04:31:17;31.77;;;16.23;;
67442;SDS011;54311;51.726;5.154;2022-08-14T04:33:43;19.77;;;15.90;;
67442;SDS011;54311;51.726;5.154;2022-08-14T04:36:08;18.02;;;16.15;;
67442;SDS011;54311;51.726;5.154;2022-08-14T04:38:33;23.13;;;15.87;;
67442;SDS011;54311;51.726;5.154;2022-08-14T04:41:17;16.25;;;14.98;;
67442;SDS011;54311;51.726;5.154;2022-08-14T04:44:01;17.77;;;16.30;;
67442;SDS011;54311;51.726;5.154;2022-08-14T04:46:26;22.00;;;15.85;;
67442;SDS011;54311;51.726;5.154;2022-08-14T04:48:52;16.10;;;14.68;;
67442;SDS011;54311;51.726;5.154;2022-08-14T04:51:18;22.90;;;15.27;;
67442;SDS011;54311;51.726;5.154;2022-08-14T04:53:45;17.30;;;15.68;;
67442;SDS011;54311;51.726;5.154;2022-08-14T04:56:11;17.27;;;15.50;;
67442;SDS011;54311;51.726;5.154;2022-08-14T04:58:37;17.65;;;15.13;;
67442;SDS011;54311;51.726;5.154;2022-08-14T05:01:03;20.20;;;15.88;;
67442;SDS011;54311;51.726;5.154;2022-08-14T05:03:31;19.05;;;17.10;;
67442;SDS011;54311;51.726;5.154;2022-08-14T05:05:58;19.23;;;16.98;;
67442;SDS011;54311;51.726;5.154;2022-08-14T05:08:24;18.10;;;16.30;;
67442;SDS011;54311;51.726;5.154;2022-08-14T05:10:50;22.93;;;16.83;;
67442;SDS011;54311;51.726;5.154;2022-08-14T05:13:16;17.40;;;15.88;;
67442;SDS011;54311;51.726;5.154;2022-08-14T05:15:41;20.20;;;15.93;;
67442;SDS011;54311;51.726;5.154;2022-08-14T05:18:09;17.92;;;15.80;;
67442;SDS011;54311;51.726;5.154;2022-08-14T05:20:37;17.42;;;15.90;;
67442;SDS011;54311;51.726;5.154;2022-08-14T05:23:02;17.58;;;16.00;;
67442;SDS011;54311;51.726;5.154;2022-08-14T05:25:27;16.17;;;14.60;;
67442;SDS011;54311;51.726;5.154;2022-08-14T05:27:53;17.33;;;15.68;;
67442;SDS011;54311;51.726;5.154;2022-08-14T05:30:18;17.80;;;15.90;;
67442;SDS011;54311;51.726;5.154;2022-08-14T05:32:44;18.27;;;16.13;;
67442;SDS011;54311;51.726;5.154;2022-08-14T05:35:09;17.27;;;15.88;;
67442;SDS011;54311;51.726;5.154;2022-08-14T05:37:35;17.20;;;15.70;;
67442;SDS011;54311;51.726;5.154;2022-08-14T05:40:00;23.17;;;15.87;;
67442;SDS011;54311;51.726;5.154;2022-08-14T05:42:26;17.40;;;15.87;;
67442;SDS011;54311;51.726;5.154;2022-08-14T05:44:51;17.27;;;15.73;;
67442;SDS011;54311;51.726;5.154;2022-08-14T05:47:16;20.52;;;15.93;;
67442;SDS011;54311;51.726;5.154;2022-08-14T05:49:41;17.03;;;15.63;;
67442;SDS011;54311;51.726;5.154;2022-08-14T05:52:07;16.90;;;15.35;;
67442;SDS011;54311;51.726;5.154;2022-08-14T05:54:32;16.90;;;15.40;;
67442;SDS011;54311;51.726;5.154;2022-08-14T05:56:57;18.20;;;15.80;;
67442;SDS011;54311;51.726;5.154;2022-08-14T05:59:23;15.97;;;14.57;;
67442;SDS011;54311;51.726;5.154;2022-08-14T06:01:48;16.13;;;14.93;;
67442;SDS011;54311;51.726;5.154;2022-08-14T06:04:13;17.63;;;15.90;;
67442;SDS011;54311;51.726;5.154;2022-08-14T06:06:38;16.43;;;15.00;;
67442;SDS011;54311;51.726;5.154;2022-08-14T06:09:03;17.73;;;15.37;;
67442;SDS011;54311;51.726;5.154;2022-08-14T06:11:29;17.92;;;16.08;;
67442;SDS011;54311;51.726;5.154;2022-08-14T06:13:54;16.90;;;15.20;;
67442;SDS011;54311;51.726;5.154;2022-08-14T06:16:19;16.58;;;15.07;;
67442;SDS011;54311;51.726;5.154;2022-08-14T06:18:48;16.63;;;15.23;;
67442;SDS011;54311;51.726;5.154;2022-08-14T06:21:13;17.13;;;15.75;;
67442;SDS011;54311;51.726;5.154;2022-08-14T06:23:39;19.92;;;16.10;;
67442;SDS011;54311;51.726;5.154;2022-08-14T06:26:04;17.47;;;15.73;;
67442;SDS011;54311;51.726;5.154;2022-08-14T06:28:30;21.30;;;16.07;;
67442;SDS011;54311;51.726;5.154;2022-08-14T06:30:55;17.77;;;15.70;;
67442;SDS011;54311;51.726;5.154;2022-08-14T06:33:20;17.63;;;15.83;;
67442;SDS011;54311;51.726;5.154;2022-08-14T06:35:47;18.63;;;15.93;;
67442;SDS011;54311;51.726;5.154;2022-08-14T06:38:19;16.98;;;15.30;;
67442;SDS011;54311;51.726;5.154;2022-08-14T06:40:45;16.58;;;14.95;;
67442;SDS011;54311;51.726;5.154;2022-08-14T06:43:11;16.42;;;14.93;;
67442;SDS011;54311;51.726;5.154;2022-08-14T06:45:38;16.65;;;14.82;;
67442;SDS011;54311;51.726;5.154;2022-08-14T06:48:10;20.33;;;15.35;;
67442;SDS011;54311;51.726;5.154;2022-08-14T06:50:37;15.40;;;14.03;;
67442;SDS011;54311;51.726;5.154;2022-08-14T06:53:02;16.87;;;15.17;;
67442;SDS011;54311;51.726;5.154;2022-08-14T06:55:27;15.90;;;14.60;;
67442;SDS011;54311;51.726;5.154;2022-08-14T06:57:52;16.48;;;14.98;;
67442;SDS011;54311;51.726;5.154;2022-08-14T07:00:19;15.83;;;14.23;;
67442;SDS011;54311;51.726;5.154;2022-08-14T07:02:45;15.10;;;13.68;;
67442;SDS011;54311;51.726;5.154;2022-08-14T07:10:42;18.95;;;13.93;;
67442;SDS011;54311;51.726;5.154;2022-08-14T07:13:08;15.25;;;13.70;;
67442;SDS011;54311;51.726;5.154;2022-08-14T07:15:33;20.42;;;12.95;;
67442;SDS011;54311;51.726;5.154;2022-08-14T07:17:59;16.43;;;13.13;;
67442;SDS011;54311;51.726;5.154;2022-08-14T07:20:24;14.25;;;12.82;;
67442;SDS011;54311;51.726;5.154;2022-08-14T07:22:51;15.30;;;12.05;;
67442;SDS011;54311;51.726;5.154;2022-08-14T07:25:20;16.25;;;14.70;;
67442;SDS011;54311;51.726;5.154;2022-08-14T07:27:46;13.38;;;12.07;;
67442;SDS011;54311;51.726;5.154;2022-08-14T07:30:11;13.88;;;12.68;;
67442;SDS011;54311;51.726;5.154;2022-08-14T07:32:36;15.45;;;11.68;;
67442;SDS011;54311;51.726;5.154;2022-08-14T07:35:02;12.67;;;11.57;;
67442;SDS011;54311;51.726;5.154;2022-08-14T07:37:27;15.57;;;11.25;;
67442;SDS011;54311;51.726;5.154;2022-08-14T07:39:52;15.60;;;12.90;;
67442;SDS011;54311;51.726;5.154;2022-08-14T07:42:17;12.83;;;11.83;;
67442;SDS011;54311;51.726;5.154;2022-08-14T07:44:43;18.08;;;11.95;;
67442;SDS011;54311;51.726;5.154;2022-08-14T07:47:08;12.17;;;11.10;;
67442;SDS011;54311;51.726;5.154;2022-08-14T07:49:33;11.33;;;10.47;;
67442;SDS011;54311;51.726;5.154;2022-08-14T07:52:02;13.50;;;11.55;;
67442;SDS011;54311;51.726;5.154;2022-08-14T07:54:28;12.93;;;11.05;;
67442;SDS011;54311;51.726;5.154;2022-08-14T07:56:53;12.32;;;11.32;;
67442;SDS011;54311;51.726;5.154;2022-08-14T07:59:18;15.90;;;14.37;;
67442;SDS011;54311;51.726;5.154;2022-08-14T08:01:46;13.00;;;11.93;;
67442;SDS011;54311;51.726;5.154;2022-08-14T08:04:11;15.45;;;12.60;;
67442;SDS011;54311;51.726;5.154;2022-08-14T08:06:37;12.15;;;11.15;;
67442;SDS011;54311;51.726;5.154;2022-08-14T08:09:02;12.13;;;11.05;;
67442;SDS011;54311;51.726;5.154;2022-08-14T08:11:28;15.88;;;10.48;;
67442;SDS011;54311;51.726;5.154;2022-08-14T08:13:56;12.43;;;11.30;;
67442;SDS011;54311;51.726;5.154;2022-08-14T08:16:23;14.40;;;12.95;;
67442;SDS011;54311;51.726;5.154;2022-08-14T08:18:48;13.55;;;12.23;;
67442;SDS011;54311;51.726;5.154;2022-08-14T08:21:14;13.70;;;11.38;;
67442;SDS011;54311;51.726;5.154;2022-08-14T08:23:39;12.63;;;11.63;;
67442;SDS011;54311;51.726;5.154;2022-08-14T08:26:04;15.33;;;12.20;;
67442;SDS011;54311;51.726;5.154;2022-08-14T08:28:30;13.73;;;12.53;;
67442;SDS011;54311;51.726;5.154;2022-08-14T08:31:05;12.98;;;11.80;;
67442;SDS011;54311;51.726;5.154;2022-08-14T08:33:31;17.00;;;12.40;;
67442;SDS011;54311;51.726;5.154;2022-08-14T08:35:58;12.57;;;11.45;;
67442;SDS011;54311;51.726;5.154;2022-08-14T08:38:25;11.52;;;10.63;;
67442;SDS011;54311;51.726;5.154;2022-08-14T08:40:53;12.40;;;11.13;;
67442;SDS011;54311;51.726;5.154;2022-08-14T08:43:19;17.10;;;10.95;;
67442;SDS011;54311;51.726;5.154;2022-08-14T08:45:48;13.10;;;9.77;;
67442;SDS011;54311;51.726;5.154;2022-08-14T08:48:16;18.08;;;10.43;;
67442;SDS011;54311;51.726;5.154;2022-08-14T08:50:41;11.03;;;9.50;;
67442;SDS011;54311;51.726;5.154;2022-08-14T08:53:08;11.68;;;10.15;;
67442;SDS011;54311;51.726;5.154;2022-08-14T08:55:35;11.88;;;10.20;;
67442;SDS011;54311;51.726;5.154;2022-08-14T08:58:06;11.15;;;9.93;;
67442;SDS011;54311;51.726;5.154;2022-08-14T09:00:31;11.48;;;10.38;;
67442;SDS011;54311;51.726;5.154;2022-08-14T09:03:10;14.63;;;11.10;;
67442;SDS011;54311;51.726;5.154;2022-08-14T09:05:36;12.40;;;10.18;;
67442;SDS011;54311;51.726;5.154;2022-08-14T09:08:35;9.35;;;8.65;;
67442;SDS011;54311;51.726;5.154;2022-08-14T09:10:54;11.18;;;10.18;;
67442;SDS011;54311;51.726;5.154;2022-08-14T09:13:20;12.73;;;8.07;;
67442;SDS011;54311;51.726;5.154;2022-08-14T09:15:47;9.90;;;8.90;;
67442;SDS011;54311;51.726;5.154;2022-08-14T09:18:14;11.20;;;9.43;;
67442;SDS011;54311;51.726;5.154;2022-08-14T09:20:40;8.60;;;7.65;;
67442;SDS011;54311;51.726;5.154;2022-08-14T09:23:09;9.68;;;8.73;;
67442;SDS011;54311;51.726;5.154;2022-08-14T09:25:34;11.48;;;7.57;;
67442;SDS011;54311;51.726;5.154;2022-08-14T09:28:01;7.93;;;7.25;;
67442;SDS011;54311;51.726;5.154;2022-08-14T09:30:26;10.70;;;7.72;;
67442;SDS011;54311;51.726;5.154;2022-08-14T09:41:12;8.05;;;7.32;;
67442;SDS011;54311;51.726;5.154;2022-08-14T09:43:44;7.53;;;7.05;;
67442;SDS011;54311;51.726;5.154;2022-08-14T09:46:12;8.40;;;7.10;;
67442;SDS011;54311;51.726;5.154;2022-08-14T09:48:39;8.45;;;7.75;;
67442;SDS011;54311;51.726;5.154;2022-08-14T09:51:05;10.10;;;7.30;;
67442;SDS011;54311;51.726;5.154;2022-08-14T09:53:47;8.25;;;7.55;;
67442;SDS011;54311;51.726;5.154;2022-08-14T09:56:12;7.70;;;7.10;;
67442;SDS011;54311;51.726;5.154;2022-08-14T09:58:39;7.63;;;6.78;;
67442;SDS011;54311;51.726;5.154;2022-08-14T10:01:09;12.43;;;7.15;;
67442;SDS011;54311;51.726;5.154;2022-08-14T10:03:35;7.97;;;7.20;;
67442;SDS011;54311;51.726;5.154;2022-08-14T10:06:13;6.57;;;5.95;;
67442;SDS011;54311;51.726;5.154;2022-08-14T10:11:14;9.15;;;6.63;;
67442;SDS011;54311;51.726;5.154;2022-08-14T10:13:41;6.75;;;6.25;;
67442;SDS011;54311;51.726;5.154;2022-08-14T10:16:07;10.55;;;6.55;;
67442;SDS011;54311;51.726;5.154;2022-08-14T10:18:32;8.13;;;6.10;;
67442;SDS011;54311;51.726;5.154;2022-08-14T10:20:58;11.23;;;6.15;;
67442;SDS011;54311;51.726;5.154;2022-08-14T10:23:25;5.63;;;5.25;;
67442;SDS011;54311;51.726;5.154;2022-08-14T10:26:02;5.70;;;5.20;;
67442;SDS011;54311;51.726;5.154;2022-08-14T10:28:36;6.57;;;5.20;;
67442;SDS011;54311;51.726;5.154;2022-08-14T10:31:02;6.07;;;5.57;;
67442;SDS011;54311;51.726;5.154;2022-08-14T10:33:28;6.68;;;6.10;;
67442;SDS011;54311;51.726;5.154;2022-08-14T10:35:54;7.03;;;6.32;;
67442;SDS011;54311;51.726;5.154;2022-08-14T10:38:29;7.93;;;5.43;;
67442;SDS011;54311;51.726;5.154;2022-08-14T10:40:56;4.90;;;4.55;;
67442;SDS011;54311;51.726;5.154;2022-08-14T10:43:33;5.80;;;4.13;;
67442;SDS011;54311;51.726;5.154;2022-08-14T10:45:59;5.23;;;4.87;;
67442;SDS011;54311;51.726;5.154;2022-08-14T10:48:25;6.88;;;4.55;;
67442;SDS011;54311;51.726;5.154;2022-08-14T10:50:51;9.85;;;4.82;;
67442;SDS011;54311;51.726;5.154;2022-08-14T10:53:30;10.18;;;4.75;;
67442;SDS011;54311;51.726;5.154;2022-08-14T10:55:57;5.20;;;4.70;;
67442;SDS011;54311;51.726;5.154;2022-08-14T10:58:26;8.88;;;4.82;;
67442;SDS011;54311;51.726;5.154;2022-08-14T11:00:55;6.55;;;4.97;;
67442;SDS011;54311;51.726;5.154;2022-08-14T11:03:22;8.50;;;5.10;;
67442;SDS011;54311;51.726;5.154;2022-08-14T11:05:50;6.00;;;5.47;;
67442;SDS011;54311;51.726;5.154;2022-08-14T11:08:16;9.18;;;4.95;;
67442;SDS011;54311;51.726;5.154;2022-08-14T11:10:53;5.57;;;5.13;;
67442;SDS011;54311;51.726;5.154;2022-08-14T11:13:20;7.18;;;5.07;;
67442;SDS011;54311;51.726;5.154;2022-08-14T11:15:46;4.70;;;4.32;;
67442;SDS011;54311;51.726;5.154;2022-08-14T11:18:13;4.78;;;3.95;;
67442;SDS011;54311;51.726;5.154;2022-08-14T11:20:38;4.75;;;4.00;;
67442;SDS011;54311;51.726;5.154;2022-08-14T11:23:06;5.25;;;4.57;;
67442;SDS011;54311;51.726;5.154;2022-08-14T11:25:33;10.80;;;4.57;;
67442;SDS011;54311;51.726;5.154;2022-08-14T11:28:01;6.55;;;4.45;;
67442;SDS011;54311;51.726;5.154;2022-08-14T11:30:29;8.65;;;3.90;;
67442;SDS011;54311;51.726;5.154;2022-08-14T11:32:55;7.90;;;3.67;;
67442;SDS011;54311;51.726;5.154;2022-08-14T11:35:22;4.53;;;4.03;;
67442;SDS011;54311;51.726;5.154;2022-08-14T11:38:08;9.50;;;4.88;;
67442;SDS011;54311;51.726;5.154;2022-08-14T11:40:36;6.70;;;3.70;;
67442;SDS011;54311;51.726;5.154;2022-08-14T11:43:04;3.85;;;3.65;;
67442;SDS011;54311;51.726;5.154;2022-08-14T11:45:33;3.58;;;3.22;;
67442;SDS011;54311;51.726;5.154;2022-08-14T11:47:59;3.63;;;2.38;;
67442;SDS011;54311;51.726;5.154;2022-08-14T11:50:28;2.50;;;2.40;;
67442;SDS011;54311;51.726;5.154;2022-08-14T11:52:55;7.18;;;2.50;;
67442;SDS011;54311;51.726;5.154;2022-08-14T11:55:21;3.95;;;2.50;;
67442;SDS011;54311;51.726;5.154;2022-08-14T11:57:57;3.95;;;2.65;;
67442;SDS011;54311;51.726;5.154;2022-08-14T12:00:22;3.35;;;2.40;;
67442;SDS011;54311;51.726;5.154;2022-08-14T12:02:49;5.03;;;3.33;;
67442;SDS011;54311;51.726;5.154;2022-08-14T12:05:14;3.92;;;3.40;;
67442;SDS011;54311;51.726;5.154;2022-08-14T12:07:48;6.50;;;3.27;;
67442;SDS011;54311;51.726;5.154;2022-08-14T12:10:16;7.75;;;3.30;;
67442;SDS011;54311;51.726;5.154;2022-08-14T12:12:41;3.72;;;3.28;;
67442;SDS011;54311;51.726;5.154;2022-08-14T12:15:07;4.87;;;3.43;;
67442;SDS011;54311;51.726;5.154;2022-08-14T12:17:43;5.60;;;3.47;;
67442;SDS011;54311;51.726;5.154;2022-08-14T12:20:09;3.25;;;3.05;;
67442;SDS011;54311;51.726;5.154;2022-08-14T12:22:35;8.35;;;3.15;;
67442;SDS011;54311;51.726;5.154;2022-08-14T12:25:01;4.15;;;3.17;;
67442;SDS011;54311;51.726;5.154;2022-08-14T12:30:00;5.03;;;3.28;;
67442;SDS011;54311;51.726;5.154;2022-08-14T12:32:25;6.97;;;3.13;;
67442;SDS011;54311;51.726;5.154;2022-08-14T12:34:52;3.20;;;3.00;;
67442;SDS011;54311;51.726;5.154;2022-08-14T12:37:18;3.33;;;3.00;;
67442;SDS011;54311;51.726;5.154;2022-08-14T12:39:52;2.97;;;2.88;;
67442;SDS011;54311;51.726;5.154;2022-08-14T12:42:17;5.57;;;3.33;;
67442;SDS011;54311;51.726;5.154;2022-08-14T12:44:44;3.42;;;3.22;;
67442;SDS011;54311;51.726;5.154;2022-08-14T12:47:13;5.18;;;3.35;;
67442;SDS011;54311;51.726;5.154;2022-08-14T12:49:51;3.88;;;3.67;;
67442;SDS011;54311;51.726;5.154;2022-08-14T12:52:25;4.53;;;3.22;;
67442;SDS011;54311;51.726;5.154;2022-08-14T12:55:00;10.00;;;3.53;;
67442;SDS011;54311;51.726;5.154;2022-08-14T12:57:34;3.53;;;3.30;;
67442;SDS011;54311;51.726;5.154;2022-08-14T13:00:07;7.32;;;3.10;;
67442;SDS011;54311;51.726;5.154;2022-08-14T13:02:36;3.85;;;3.55;;
67442;SDS011;54311;51.726;5.154;2022-08-14T13:05:01;4.25;;;3.67;;
67442;SDS011;54311;51.726;5.154;2022-08-14T13:07:28;4.88;;;3.80;;
67442;SDS011;54311;51.726;5.154;2022-08-14T13:09:54;3.67;;;3.25;;
67442;SDS011;54311;51.726;5.154;2022-08-14T13:12:20;3.80;;;3.50;;
67442;SDS011;54311;51.726;5.154;2022-08-14T13:14:49;6.30;;;3.50;;
67442;SDS011;54311;51.726;5.154;2022-08-14T13:17:14;4.55;;;3.47;;
67442;SDS011;54311;51.726;5.154;2022-08-14T13:19:40;3.72;;;3.15;;
67442;SDS011;54311;51.726;5.154;2022-08-14T13:22:07;3.50;;;3.13;;
67442;SDS011;54311;51.726;5.154;2022-08-14T13:24:32;4.30;;;3.10;;
67442;SDS011;54311;51.726;5.154;2022-08-14T13:26:58;3.40;;;3.20;;
67442;SDS011;54311;51.726;5.154;2022-08-14T13:29:28;3.70;;;3.20;;
67442;SDS011;54311;51.726;5.154;2022-08-14T13:31:54;3.35;;;3.15;;
67442;SDS011;54311;51.726;5.154;2022-08-14T13:34:20;8.15;;;3.15;;
67442;SDS011;54311;51.726;5.154;2022-08-14T13:36:46;3.47;;;3.17;;
67442;SDS011;54311;51.726;5.154;2022-08-14T13:39:16;3.55;;;3.17;;
67442;SDS011;54311;51.726;5.154;2022-08-14T13:41:42;3.30;;;3.00;;
67442;SDS011;54311;51.726;5.154;2022-08-14T13:44:08;8.18;;;3.20;;
67442;SDS011;54311;51.726;5.154;2022-08-14T13:46:34;3.97;;;3.40;;
67442;SDS011;54311;51.726;5.154;2022-08-14T13:49:00;4.78;;;3.38;;
67442;SDS011;54311;51.726;5.154;2022-08-14T13:51:25;3.97;;;3.35;;
67442;SDS011;54311;51.726;5.154;2022-08-14T13:53:54;3.78;;;3.28;;
67442;SDS011;54311;51.726;5.154;2022-08-14T13:56:20;6.65;;;3.42;;
67442;SDS011;54311;51.726;5.154;2022-08-14T13:58:46;4.00;;;3.70;;
67442;SDS011;54311;51.726;5.154;2022-08-14T14:01:14;3.35;;;3.22;;
67442;SDS011;54311;51.726;5.154;2022-08-14T14:03:39;3.38;;;3.15;;
67442;SDS011;54311;51.726;5.154;2022-08-14T14:06:08;9.02;;;3.53;;
67442;SDS011;54311;51.726;5.154;2022-08-14T14:08:34;4.10;;;3.30;;
67442;SDS011;54311;51.726;5.154;2022-08-14T14:11:03;3.63;;;3.30;;
67442;SDS011;54311;51.726;5.154;2022-08-14T14:13:29;3.80;;;3.30;;
67442;SDS011;54311;51.726;5.154;2022-08-14T14:15:55;4.43;;;3.20;;
67442;SDS011;54311;51.726;5.154;2022-08-14T14:18:21;3.42;;;3.17;;
67442;SDS011;54311;51.726;5.154;2022-08-14T14:20:50;11.32;;;3.40;;
67442;SDS011;54311;51.726;5.154;2022-08-14T14:23:15;5.47;;;3.60;;
67442;SDS011;54311;51.726;5.154;2022-08-14T14:25:41;3.20;;;3.10;;
67442;SDS011;54311;51.726;5.154;2022-08-14T14:28:07;6.57;;;3.30;;
67442;SDS011;54311;51.726;5.154;2022-08-14T14:30:33;4.82;;;3.30;;
67442;SDS011;54311;51.726;5.154;2022-08-14T14:32:59;4.35;;;3.75;;
67442;SDS011;54311;51.726;5.154;2022-08-14T14:35:24;3.83;;;3.53;;
67442;SDS011;54311;51.726;5.154;2022-08-14T14:37:53;4.97;;;3.10;;
67442;SDS011;54311;51.726;5.154;2022-08-14T14:40:18;5.00;;;3.50;;
67442;SDS011;54311;51.726;5.154;2022-08-14T14:42:47;5.57;;;3.70;;
67442;SDS011;54311;51.726;5.154;2022-08-14T14:45:13;4.10;;;3.40;;
67442;SDS011;54311;51.726;5.154;2022-08-14T14:47:41;10.90;;;3.70;;